Terminal Aerodrome Forecast
Issued by NWS Sterling, VA

Current Version | Previous Version | Text Only | Print | Product List | Glossary Off
Versions: 1 2 3 4 5 6 7 8 9 10 11 12 13 14 15 16 17 18 19 20 21 22

000
FTUS41 KLWX 152000 AAA
TAFDCA
TAF AMD
KDCA 152058Z 1521/1618 17007KT P6SM SCT060 BKN250
     FM161100 33008KT P6SM BKN050
     FM161600 33010G18KT P6SM SCT050=

USA.gov is the U.S. government's official web portal to all federal, state and local government web resources and services.